Time;durP1;ratioP1;P1;durP2;ratioP2;P2;SDS_P1;SDS_P2;PMS_P1;PMS_P2;Temp;Humidity;BMP_temperature;BMP_pressure;BME280_temperature;BME280_humidity;BME280_pressure;Samples;Min_cycle;Max_cycle;Signal;HPM_P1;HPM_P2
2022/06/10 00:02:36;;;;;;;4.28;0.60;;;16.60;99.90;;;;;;1923073;73;21114;-89
2022/06/10 00:05:31;;;;;;;1.67;0.50;;;16.50;99.90;;;;;;1936725;73;21054;-88
2022/06/10 00:08:44;;;;;;;3.35;0.70;;;16.50;99.90;;;;;;1926016;73;21059;-90
2022/06/10 00:11:36;;;;;;;2.50;0.60;;;16.40;99.90;;;;;;1917422;73;21058;-89
2022/06/10 00:14:28;;;;;;;3.92;0.80;;;16.40;99.90;;;;;;1918396;73;21118;-90
2022/06/10 00:17:19;;;;;;;1.75;0.60;;;16.40;99.90;;;;;;1917682;75;21204;-87
2022/06/10 00:20:14;;;;;;;4.65;1.22;;;16.20;99.90;;;;;;1921378;73;21125;-90
2022/06/10 00:23:06;;;;;;;2.85;0.60;;;16.00;99.90;;;;;;1920778;73;21456;-88
2022/06/10 00:25:57;;;;;;;2.80;0.70;;;16.00;99.90;;;;;;1931699;73;21110;-89
2022/06/10 00:28:49;;;;;;;2.90;0.50;;;16.10;99.90;;;;;;1917753;75;21054;-90
2022/06/10 00:34:21;;;;;;;3.47;0.80;;;15.90;99.90;;;;;;1939145;72;22281;-89
2022/06/10 00:37:32;;;;;;;2.67;0.70;;;15.90;99.90;;;;;;1892132;75;21085;-90
2022/06/10 00:40:44;;;;;;;4.05;0.78;;;16.00;99.90;;;;;;1915231;74;21628;-90
2022/06/10 00:43:37;;;;;;;3.80;0.65;;;15.90;99.90;;;;;;1889729;75;21204;-90
2022/06/10 00:46:48;;;;;;;2.17;0.70;;;16.00;99.90;;;;;;1917674;75;21101;-89
2022/06/10 00:52:28;;;;;;;2.37;0.85;;;15.90;99.90;;;;;;1948456;72;20524;-89
2022/06/10 00:55:39;;;;;;;5.05;0.70;;;15.90;99.90;;;;;;1922398;73;21401;-90
2022/06/10 00:58:53;;;;;;;2.92;0.90;;;15.70;99.90;;;;;;1917718;75;21051;-90
2022/06/10 01:01:46;;;;;;;4.12;0.65;;;15.50;99.90;;;;;;1923339;73;21140;-91
2022/06/10 01:07:48;;;;;;;2.22;0.50;;;15.40;99.90;;;;;;1951680;72;22269;-90
2022/06/10 01:13:48;;;;;;;6.33;1.02;;;15.20;99.90;;;;;;1929509;72;27932;-88
2022/06/10 01:20:02;;;;;;;2.95;0.82;;;15.20;99.90;;;;;;1950063;72;22608;-90
2022/06/10 01:31:09;;;;;;;2.58;0.70;;;14.90;99.90;;;;;;1904575;74;21077;-89
2022/06/10 01:34:27;;;;;;;5.62;0.82;;;14.90;99.90;;;;;;1891034;75;21102;-89
2022/06/10 01:37:21;;;;;;;4.85;0.95;;;14.90;99.90;;;;;;1885568;75;21062;-90
2022/06/10 01:40:34;;;;;;;3.92;0.62;;;15.00;99.90;;;;;;1884860;75;21172;-90
2022/06/10 01:43:32;;;;;;;2.72;1.10;;;15.00;99.90;;;;;;1885392;75;21066;-83
2022/06/10 01:49:09;;;;;;;2.05;0.60;;;14.80;99.90;;;;;;1953131;72;22313;-75
2022/06/10 01:55:07;;;;;;;6.42;1.10;;;14.70;99.90;;;;;;1915798;72;22179;-87
2022/06/10 01:58:20;;;;;;;2.77;0.50;;;14.60;99.90;;;;;;1897115;75;21089;-88
2022/06/10 02:04:16;;;;;;;2.50;0.62;;;14.70;99.90;;;;;;1955364;72;22157;-87
2022/06/10 02:07:29;;;;;;;3.42;0.70;;;14.60;99.90;;;;;;1926672;73;21181;-87
2022/06/10 02:10:42;;;;;;;3.67;1.02;;;14.70;99.90;;;;;;1919537;73;21198;-88
2022/06/10 02:13:37;;;;;;;4.80;1.17;;;14.70;99.90;;;;;;1913912;74;21103;-88
2022/06/10 02:16:49;;;;;;;3.65;0.70;;;14.60;99.90;;;;;;1943943;73;21402;-88
2022/06/10 02:19:44;;;;;;;3.17;0.93;;;14.50;99.90;;;;;;1927936;73;21113;-87
2022/06/10 02:22:37;;;;;;;4.65;1.30;;;14.30;99.90;;;;;;1927235;74;21103;-88
2022/06/10 02:28:10;;;;;;;3.75;0.90;;;14.30;99.90;;;;;;2022151;69;22202;-86
2022/06/10 02:31:24;;;;;;;2.75;0.80;;;14.40;99.90;;;;;;1982019;72;21162;-88
2022/06/10 02:34:34;;;;;;;5.42;0.65;;;14.40;99.90;;;;;;1958229;72;21038;-88
2022/06/10 02:37:29;;;;;;;4.47;0.80;;;14.30;99.90;;;;;;1979448;72;21091;-87
2022/06/10 02:40:42;;;;;;;3.95;0.80;;;14.30;99.90;;;;;;1976402;72;21167;-87
2022/06/10 02:43:37;;;;;;;3.83;0.90;;;14.30;99.90;;;;;;1972442;72;21582;-87
2022/06/10 02:57:21;;;;;;;5.60;0.60;;;14.10;99.90;;;;;;1934335;72;22659;-87
2022/06/10 03:03:13;;;;;;;3.02;0.90;;;14.10;99.90;;;;;;1951421;73;22166;-87
2022/06/10 03:06:26;;;;;;;4.37;0.70;;;14.10;99.90;;;;;;1905656;75;21180;-87
2022/06/10 03:09:42;;;;;;;3.47;0.90;;;14.10;99.90;;;;;;1914122;75;21152;-88
2022/06/10 03:12:39;;;;;;;3.75;0.78;;;14.00;99.90;;;;;;1884213;75;21082;-88
2022/06/10 03:18:45;;;;;;;3.98;0.90;;;13.90;99.90;;;;;;1962069;72;22180;-87
2022/06/10 03:22:00;;;;;;;4.33;0.80;;;13.90;99.90;;;;;;1916499;75;21144;-86
2022/06/10 03:25:15;;;;;;;1.87;0.60;;;14.00;99.90;;;;;;1916564;75;21184;-86
2022/06/10 03:28:12;;;;;;;3.05;0.80;;;14.10;99.90;;;;;;1916847;75;21164;-87
2022/06/10 03:31:24;;;;;;;3.60;0.90;;;14.10;99.90;;;;;;1917468;73;21071;-86
2022/06/10 03:37:00;;;;;;;3.55;0.90;;;14.30;99.90;;;;;;1943793;72;22192;-87
2022/06/10 03:40:16;;;;;;;3.12;0.70;;;14.30;99.90;;;;;;1915261;75;21140;-87
2022/06/10 03:43:27;;;;;;;4.55;0.90;;;14.30;99.90;;;;;;1916720;75;21079;-87
2022/06/10 03:46:20;;;;;;;4.15;0.93;;;14.40;99.90;;;;;;1916719;75;21191;-86
2022/06/10 03:49:33;;;;;;;1.92;0.72;;;14.40;99.90;;;;;;1916637;75;21107;-86
2022/06/10 03:52:27;;;;;;;2.85;0.88;;;14.20;99.90;;;;;;1910003;75;21162;-87
2022/06/10 03:55:21;;;;;;;3.22;0.82;;;14.20;99.90;;;;;;1908816;75;21140;-87
2022/06/10 03:58:13;;;;;;;2.85;1.00;;;14.20;99.90;;;;;;1923951;73;21136;-87
2022/06/10 04:03:50;;;;;;;5.58;1.37;;;14.30;99.90;;;;;;1916878;72;28024;-81
2022/06/10 04:07:00;;;;;;;4.67;0.80;;;14.50;99.90;;;;;;1902444;74;21187;-79
2022/06/10 04:10:14;;;;;;;2.75;1.12;;;14.60;99.90;;;;;;1891695;75;21054;-85
2022/06/10 04:13:07;;;;;;;2.77;0.90;;;14.50;99.90;;;;;;1887679;75;21067;-86
2022/06/10 04:16:16;;;;;;;3.50;0.90;;;14.50;99.90;;;;;;1891663;74;21486;-85
2022/06/10 04:19:08;;;;;;;2.45;0.62;;;14.50;99.90;;;;;;1913892;75;21066;-89
2022/06/10 04:21:59;;;;;;;3.00;0.80;;;14.60;99.90;;;;;;1894035;75;21188;-84
2022/06/10 04:24:51;;;;;;;1.98;0.57;;;14.50;99.90;;;;;;1895581;75;21110;-88
2022/06/10 04:27:43;;;;;;;3.20;0.60;;;14.50;99.90;;;;;;1898256;75;21208;-86
2022/06/10 04:30:36;;;;;;;3.72;0.80;;;14.50;99.90;;;;;;1908690;74;21546;-85
2022/06/10 04:36:07;;;;;;;4.97;0.80;;;14.50;99.90;;;;;;1929580;72;22187;-87
2022/06/10 04:42:01;;;;;;;1.98;0.72;;;14.50;99.90;;;;;;1949456;72;22166;-85
2022/06/10 04:45:13;;;;;;;2.83;0.95;;;14.60;99.90;;;;;;1930325;73;21133;-85
2022/06/10 04:48:24;;;;;;;2.83;0.60;;;14.60;99.90;;;;;;1940872;73;21086;-85
2022/06/10 04:53:55;;;;;;;2.98;1.00;;;14.70;99.90;;;;;;1939492;72;22165;-84
2022/06/10 04:57:05;;;;;;;2.17;0.80;;;14.60;99.90;;;;;;1894505;75;21214;-84
2022/06/10 05:00:21;;;;;;;4.45;1.12;;;14.60;99.90;;;;;;1883915;75;21083;-86
2022/06/10 05:03:12;;;;;;;4.30;0.88;;;14.70;99.90;;;;;;1875221;75;21184;-85
2022/06/10 05:09:04;;;;;;;2.80;0.88;;;14.80;99.90;;;;;;1936765;72;22229;-84
2022/06/10 05:12:14;;;;;;;1.90;0.75;;;14.80;99.90;;;;;;1893480;75;21572;-85
2022/06/10 05:15:24;;;;;;;2.42;0.90;;;14.90;99.90;;;;;;1904303;75;21110;-84
2022/06/10 05:18:17;;;;;;;2.62;0.78;;;14.90;99.90;;;;;;1901176;75;21138;-84
2022/06/10 05:21:27;;;;;;;5.00;1.00;;;14.90;99.90;;;;;;1912367;74;21088;-85
2022/06/10 05:24:19;;;;;;;4.78;1.10;;;14.90;99.90;;;;;;1903158;75;21097;-84
2022/06/10 05:27:10;;;;;;;3.37;1.32;;;14.90;99.90;;;;;;1907322;75;21574;-84
2022/06/10 05:30:02;;;;;;;1.80;0.90;;;14.90;99.90;;;;;;1902499;75;21098;-84
2022/06/10 05:32:54;;;;;;;3.47;0.80;;;15.00;99.90;;;;;;1899189;75;21094;-84
2022/06/10 05:35:46;;;;;;;2.87;1.00;;;15.00;99.90;;;;;;1910763;74;21247;-84
2022/06/10 05:38:38;;;;;;;3.50;1.00;;;15.00;99.90;;;;;;1900528;74;21051;-83
2022/06/10 05:44:41;;;;;;;4.97;0.95;;;15.10;99.90;;;;;;1888584;75;21610;-83
2022/06/10 05:47:37;;;;;;;4.42;1.10;;;15.10;99.90;;;;;;1896201;75;21125;-83
2022/06/10 05:50:32;;;;;;;2.45;1.02;;;15.20;99.90;;;;;;1903192;75;21159;-83
2022/06/10 05:53:23;;;;;;;2.70;1.00;;;15.20;99.90;;;;;;1892145;75;21066;-83
2022/06/10 05:56:15;;;;;;;3.87;0.98;;;15.30;99.90;;;;;;1908700;75;21055;-82
2022/06/10 05:59:07;;;;;;;6.47;1.50;;;15.30;99.90;;;;;;1895181;75;21183;-83
2022/06/10 06:01:59;;;;;;;2.08;1.00;;;15.30;99.90;;;;;;1901501;75;21155;-83
2022/06/10 06:04:50;;;;;;;4.03;1.12;;;15.30;99.90;;;;;;1903846;75;21175;-83
2022/06/10 06:07:44;;;;;;;2.92;0.80;;;15.40;99.90;;;;;;1886221;75;21113;-82
2022/06/10 06:10:36;;;;;;;4.58;1.52;;;15.50;99.90;;;;;;1845714;76;21105;-82
2022/06/10 06:13:28;;;;;;;3.60;0.90;;;15.60;99.90;;;;;;1883925;74;21587;-82
2022/06/10 06:16:22;;;;;;;2.27;0.90;;;15.60;99.90;;;;;;1884236;74;21183;-82
2022/06/10 06:21:52;;;;;;;3.83;1.00;;;15.80;99.90;;;;;;1926032;72;22259;-82
2022/06/10 06:25:02;;;;;;;7.30;1.22;;;15.80;99.90;;;;;;1901244;75;21717;-82
2022/06/10 06:28:14;;;;;;;2.50;1.07;;;15.90;99.90;;;;;;1890040;75;21165;-88
2022/06/10 06:31:07;;;;;;;3.33;0.82;;;16.00;99.90;;;;;;1896591;75;21058;-90
2022/06/10 06:34:18;;;;;;;3.50;1.05;;;16.00;99.90;;;;;;1869552;76;21166;-89
2022/06/10 06:37:14;;;;;;;4.40;1.35;;;16.10;99.90;;;;;;1888038;75;21115;-89
2022/06/10 06:42:45;;;;;;;4.85;0.90;;;16.30;99.90;;;;;;1948201;72;22711;-89
2022/06/10 06:45:55;;;;;;;2.90;1.07;;;16.30;99.90;;;;;;1886829;75;21091;-89
2022/06/10 06:51:55;;;;;;;3.62;1.60;;;16.50;99.90;;;;;;1939357;72;22177;-89
2022/06/10 06:57:49;;;;;;;3.72;1.20;;;16.60;99.90;;;;;;1946330;72;22295;-90
2022/06/10 07:01:08;;;;;;;3.83;1.12;;;16.60;99.90;;;;;;1925159;74;21098;-90
2022/06/10 07:11:42;;;;;;;2.52;0.90;;;16.70;99.90;;;;;;1931333;73;22194;-91
2022/06/10 07:14:55;;;;;;;3.27;0.93;;;16.50;99.90;;;;;;1891925;74;21065;-91
2022/06/10 07:18:43;;;;;;;4.83;0.70;;;16.50;99.90;;;;;;1914952;75;21550;-91
2022/06/10 07:21:39;;;;;;;5.50;0.80;;;16.50;99.90;;;;;;1949222;73;21098;-90
2022/06/10 07:24:55;;;;;;;4.20;1.15;;;16.50;99.90;;;;;;1957633;73;21096;-91
2022/06/10 07:28:00;;;;;;;2.77;0.68;;;16.60;99.90;;;;;;1911565;73;21151;-91
2022/06/10 07:31:41;;;;;;;6.80;0.93;;;16.70;99.90;;;;;;1912154;75;21206;-92
2022/06/10 07:35:10;;;;;;;2.52;0.82;;;16.80;99.90;;;;;;1874443;75;21556;-91
2022/06/10 15:42:47;;;;;;;3.80;0.80;;;32.00;65.80;;;;;;2021268;70;21018;-91
2022/06/10 15:45:58;;;;;;;2.35;0.60;;;30.80;67.60;;;;;;1999270;72;21069;-92
2022/06/10 15:48:50;;;;;;;2.77;0.90;;;30.80;67.80;;;;;;2025238;70;21118;-92
2022/06/10 15:52:02;;;;;;;1.98;0.62;;;31.70;67.70;;;;;;1999047;72;21153;-92
2022/06/10 15:58:06;;;;;;;2.92;0.62;;;33.50;62.90;;;;;;1998911;72;21087;-93
2022/06/10 16:00:58;;;;;;;2.20;0.70;;;33.30;63.00;;;;;;1998806;70;21148;-93
2022/06/10 16:06:31;;;;;;;1.95;0.70;;;32.30;63.30;;;;;;1954818;72;22310;-90
2022/06/10 16:09:41;;;;;;;1.77;0.60;;;31.80;63.60;;;;;;1917922;74;21116;-92
2022/06/10 16:15:36;;;;;;;1.50;0.65;;;30.70;66.40;;;;;;1947582;72;22158;-89
2022/06/10 16:18:47;;;;;;;2.30;1.00;;;30.40;67.10;;;;;;1874099;75;21051;-90
2022/06/10 16:22:17;;;;;;;2.20;0.60;;;30.40;67.50;;;;;;1884568;75;21192;-90
2022/06/10 16:28:54;;;;;;;3.27;0.70;;;31.00;65.30;;;;;;2007516;71;22232;-91
2022/06/10 16:32:07;;;;;;;3.27;0.70;;;31.20;65.80;;;;;;1964080;72;21132;-91
2022/06/10 16:35:19;;;;;;;1.90;0.70;;;31.10;65.80;;;;;;2047065;69;21529;-91
2022/06/10 16:38:17;;;;;;;2.02;0.70;;;31.20;66.70;;;;;;2033449;70;21549;-90
2022/06/10 16:41:29;;;;;;;3.43;0.80;;;31.70;67.00;;;;;;2048649;69;21097;-90
2022/06/10 16:47:05;;;;;;;3.72;0.80;;;31.30;67.50;;;;;;1935966;72;22126;-90
2022/06/10 16:52:55;;;;;;;3.10;0.88;;;31.30;68.20;;;;;;1942364;72;22263;-91
2022/06/10 16:56:06;;;;;;;2.95;0.95;;;31.20;68.50;;;;;;1913186;74;21031;-89
2022/06/10 16:59:20;;;;;;;1.37;0.70;;;30.90;69.50;;;;;;1893992;75;21160;-90
2022/06/10 17:04:58;;;;;;;1.75;0.75;;;30.80;70.30;;;;;;1951880;72;22201;-90
2022/06/10 17:08:12;;;;;;;1.85;0.80;;;30.60;68.40;;;;;;1917843;75;21474;-89
2022/06/10 17:11:24;;;;;;;2.30;0.90;;;30.50;69.90;;;;;;1919528;73;21046;-89
2022/06/10 17:17:00;;;;;;;3.22;1.00;;;30.40;71.00;;;;;;1924097;72;22130;-89
2022/06/10 17:23:05;;;;;;;3.77;0.90;;;30.10;72.50;;;;;;1948165;72;22132;-89
2022/06/10 17:26:20;;;;;;;2.90;0.80;;;30.30;72.80;;;;;;1914379;74;21063;-88
2022/06/10 17:29:33;;;;;;;2.20;0.60;;;30.10;71.30;;;;;;1919817;73;21510;-87
2022/06/10 17:32:28;;;;;;;2.35;0.70;;;29.90;72.70;;;;;;1917712;75;21169;-89
2022/06/10 17:35:38;;;;;;;1.15;0.60;;;29.20;73.70;;;;;;1918344;73;21137;-88
2022/06/10 17:38:33;;;;;;;4.17;0.80;;;29.10;73.20;;;;;;1917641;75;21042;-89
2022/06/10 17:41:32;;;;;;;3.33;0.60;;;28.80;75.00;;;;;;1922878;73;21047;-88
2022/06/10 17:47:08;;;;;;;4.00;1.10;;;28.50;75.90;;;;;;1950368;72;22138;-89
2022/06/10 17:50:22;;;;;;;1.55;0.82;;;28.40;77.20;;;;;;1900876;75;21090;-89
2022/06/10 17:53:32;;;;;;;2.05;0.70;;;28.40;77.20;;;;;;1893095;75;21124;-89
2022/06/10 17:56:25;;;;;;;4.47;0.88;;;28.30;77.10;;;;;;1887229;75;21136;-89
2022/06/10 17:59:39;;;;;;;2.85;0.80;;;28.20;77.00;;;;;;1896994;75;21169;-89
2022/06/10 18:02:34;;;;;;;1.60;0.65;;;28.00;78.20;;;;;;1881409;75;21054;-88
2022/06/10 18:05:28;;;;;;;4.33;0.98;;;28.00;78.80;;;;;;1891002;75;21105;-89
2022/06/10 18:08:22;;;;;;;1.85;0.70;;;27.90;78.40;;;;;;1884698;75;21054;-88
2022/06/10 18:17:28;;;;;;;2.80;1.05;;;27.90;79.80;;;;;;1884828;75;21055;-88
2022/06/10 18:20:39;;;;;;;4.58;1.00;;;28.10;80.00;;;;;;1889164;75;21128;-86
2022/06/10 18:23:33;;;;;;;2.70;0.90;;;28.60;79.30;;;;;;1889213;75;21094;-87
2022/06/10 18:26:47;;;;;;;2.00;0.75;;;28.40;80.20;;;;;;1892874;75;21043;-87
2022/06/10 18:32:20;;;;;;;3.87;0.90;;;27.80;80.60;;;;;;1942865;72;22316;-87
2022/06/10 18:38:11;;;;;;;2.98;0.90;;;26.30;86.50;;;;;;1950198;72;22143;-87
2022/06/10 18:41:21;;;;;;;3.83;0.82;;;25.90;87.10;;;;;;1909826;73;21134;-88
2022/06/10 18:44:31;;;;;;;2.12;1.05;;;25.50;89.20;;;;;;1904071;73;21067;-87
2022/06/10 18:47:25;;;;;;;1.90;0.90;;;25.10;90.60;;;;;;1926374;73;21097;-88
2022/06/10 18:50:37;;;;;;;3.33;1.32;;;24.90;90.50;;;;;;1900355;74;21142;-87
2022/06/10 18:53:29;;;;;;;3.87;1.22;;;24.70;91.10;;;;;;1913508;74;21126;-87
2022/06/10 18:56:25;;;;;;;2.70;0.95;;;24.60;92.40;;;;;;1924924;73;21533;-88
2022/06/10 18:59:19;;;;;;;5.25;0.90;;;24.50;91.70;;;;;;1893818;75;21501;-88
2022/06/10 19:02:17;;;;;;;4.75;0.90;;;24.40;91.70;;;;;;1908690;75;21163;-88
2022/06/10 19:05:16;;;;;;;8.05;1.05;;;24.40;93.30;;;;;;1897907;74;21071;-88
2022/06/10 19:08:09;;;;;;;2.40;0.70;;;24.30;93.60;;;;;;1919651;74;21640;-88
2022/06/10 19:13:40;;;;;;;2.55;0.95;;;24.10;94.80;;;;;;1918372;72;22142;-87
2022/06/10 19:16:53;;;;;;;3.25;1.20;;;24.20;95.10;;;;;;1916814;75;21125;-87
2022/06/10 19:22:42;;;;;;;2.27;0.70;;;23.90;96.20;;;;;;1939011;72;22226;-87
2022/06/10 19:25:54;;;;;;;5.35;0.85;;;24.00;96.30;;;;;;1884502;75;22254;-87
2022/06/10 19:29:07;;;;;;;3.67;0.75;;;23.90;96.60;;;;;;1890993;75;21134;-87
2022/06/10 19:32:02;;;;;;;2.55;0.90;;;23.90;97.30;;;;;;1900560;75;21059;-87
2022/06/10 19:35:18;;;;;;;4.47;0.80;;;23.80;97.70;;;;;;1878480;76;21113;-87
2022/06/10 19:38:14;;;;;;;2.40;0.80;;;23.70;98.20;;;;;;1897329;75;21160;-86
2022/06/10 19:41:06;;;;;;;5.37;0.78;;;23.60;98.70;;;;;;1909365;75;21168;-87
2022/06/10 19:47:15;;;;;;;3.75;1.00;;;23.50;99.90;;;;;;1908956;75;21090;-86
2022/06/10 19:50:15;;;;;;;3.62;0.90;;;23.40;99.90;;;;;;1888438;75;21091;-86
2022/06/10 19:53:09;;;;;;;2.30;1.02;;;23.40;99.90;;;;;;1902936;75;21055;-87
2022/06/10 19:56:05;;;;;;;4.30;1.10;;;23.30;99.90;;;;;;1904686;75;21187;-86
2022/06/10 19:58:57;;;;;;;3.30;0.90;;;23.30;99.90;;;;;;1887582;75;21130;-85
2022/06/10 20:01:52;;;;;;;1.60;0.82;;;23.30;99.90;;;;;;1910139;75;21111;-86
2022/06/10 20:07:35;;;;;;;4.30;0.80;;;23.20;99.90;;;;;;1958938;72;22137;-86
2022/06/10 20:13:24;;;;;;;3.92;0.70;;;23.10;99.90;;;;;;1935504;72;22204;-86
2022/06/10 20:19:16;;;;;;;1.40;0.60;;;22.80;99.90;;;;;;1939455;72;22281;-86
2022/06/10 20:22:29;;;;;;;3.10;0.78;;;22.80;99.90;;;;;;1899346;74;21532;-86
2022/06/10 20:25:40;;;;;;;2.77;0.80;;;22.60;99.90;;;;;;1905312;75;21129;-86
2022/06/10 20:28:33;;;;;;;2.50;0.80;;;22.50;99.90;;;;;;1894168;75;21499;-90
2022/06/10 20:31:46;;;;;;;2.92;1.00;;;22.60;99.90;;;;;;1887174;74;21513;-85
2022/06/10 20:37:24;;;;;;;4.30;0.65;;;22.40;99.90;;;;;;1934211;72;22547;-85
2022/06/10 20:40:36;;;;;;;3.25;0.70;;;22.30;99.90;;;;;;1877450;75;21082;-86
2022/06/10 20:43:45;;;;;;;2.35;0.70;;;22.20;99.90;;;;;;1883594;75;21027;-85
2022/06/10 20:54:45;;;;;;;2.50;1.05;;;21.90;99.90;;;;;;1931219;72;22142;-86
2022/06/10 20:57:57;;;;;;;3.87;1.17;;;21.80;99.90;;;;;;1902893;74;21333;-86
2022/06/10 21:01:11;;;;;;;3.95;1.07;;;21.90;99.90;;;;;;1902028;74;21074;-85
2022/06/10 21:07:37;;;;;;;2.87;0.60;;;21.90;99.90;;;;;;1905162;75;21167;-88
2022/06/10 21:10:31;;;;;;;1.37;0.50;;;21.90;99.90;;;;;;1911173;74;21195;-88
2022/06/10 21:13:24;;;;;;;1.37;0.70;;;21.90;99.90;;;;;;1913710;74;21117;-88
2022/06/10 21:18:58;;;;;;;1.25;0.50;;;21.80;99.90;;;;;;1962191;72;22152;-90
2022/06/10 21:22:12;;;;;;;2.55;0.75;;;21.80;99.90;;;;;;1920847;74;21085;-89
2022/06/10 21:28:11;;;;;;;1.65;0.50;;;21.70;99.90;;;;;;1935514;72;22252;-88
2022/06/10 21:31:24;;;;;;;1.47;0.55;;;21.70;99.90;;;;;;1896642;75;21043;-88
2022/06/10 21:34:36;;;;;;;1.60;0.60;;;21.60;99.90;;;;;;1917360;73;21089;-89
2022/06/10 21:37:27;;;;;;;2.12;0.80;;;21.50;99.90;;;;;;1887267;75;21129;-90
2022/06/10 21:40:38;;;;;;;1.92;0.80;;;21.50;99.90;;;;;;1895285;75;21530;-89
2022/06/10 21:46:39;;;;;;;2.33;0.57;;;21.40;99.90;;;;;;1904381;75;21168;-90
2022/06/10 21:52:18;;;;;;;2.25;0.70;;;21.40;99.90;;;;;;1953077;72;22937;-89
2022/06/10 21:58:18;;;;;;;4.35;0.80;;;21.40;99.90;;;;;;1936656;72;22276;-89
2022/06/10 22:01:31;;;;;;;2.65;0.62;;;21.40;99.90;;;;;;1913665;74;21552;-89
2022/06/10 22:04:43;;;;;;;1.02;0.50;;;21.50;99.90;;;;;;1900122;73;21601;-90
2022/06/10 22:07:34;;;;;;;3.17;0.95;;;21.50;99.90;;;;;;1902819;75;21121;-90
2022/06/10 22:10:44;;;;;;;3.77;0.90;;;21.50;99.90;;;;;;1934571;74;21137;-89
2022/06/10 22:13:35;;;;;;;4.40;1.00;;;21.40;99.90;;;;;;1891809;75;21104;-89
2022/06/10 22:16:33;;;;;;;2.90;0.82;;;21.20;99.90;;;;;;1908694;75;21054;-89
2022/06/10 22:19:27;;;;;;;2.20;1.05;;;21.00;99.90;;;;;;1914529;74;21046;-89
2022/06/10 22:25:14;;;;;;;1.82;0.95;;;20.70;99.90;;;;;;1934815;72;22106;-89
2022/06/10 22:28:25;;;;;;;5.58;1.30;;;20.60;99.90;;;;;;1890795;75;21076;-89
2022/06/10 22:31:36;;;;;;;5.83;0.98;;;20.40;99.90;;;;;;1886529;75;21154;-90
2022/06/10 22:37:13;;;;;;;3.05;0.80;;;20.10;99.90;;;;;;1932837;72;22676;-88
2022/06/10 22:40:23;;;;;;;4.92;1.05;;;19.90;99.90;;;;;;1905108;75;21103;-90
2022/06/10 22:43:34;;;;;;;2.20;0.90;;;19.90;99.90;;;;;;1890576;75;21109;-89
2022/06/10 22:46:30;;;;;;;2.95;0.70;;;19.70;99.90;;;;;;1882548;75;21102;-89
2022/06/10 22:49:42;;;;;;;3.95;0.80;;;19.70;99.90;;;;;;1884116;75;21095;-89
2022/06/10 22:52:36;;;;;;;1.05;0.70;;;19.60;99.90;;;;;;1890400;75;21604;-90
2022/06/10 22:55:30;;;;;;;4.15;0.90;;;19.50;99.90;;;;;;1895542;75;21163;-90
2022/06/10 22:58:24;;;;;;;2.75;0.90;;;19.60;99.90;;;;;;1900271;75;21150;-92
2022/06/10 23:01:20;;;;;;;4.00;0.80;;;19.60;99.90;;;;;;1901126;75;21578;-90
2022/06/10 23:07:26;;;;;;;5.67;1.05;;;19.50;99.90;;;;;;1908416;73;21123;-90
2022/06/10 23:10:33;;;;;;;3.02;0.80;;;19.50;99.90;;;;;;1893119;75;21125;-86
2022/06/10 23:13:27;;;;;;;4.67;0.80;;;19.60;99.90;;;;;;1886168;75;21100;-85
2022/06/10 23:16:19;;;;;;;2.17;1.10;;;19.50;99.90;;;;;;1885309;75;21152;-85
2022/06/10 23:19:17;;;;;;;3.02;1.30;;;19.50;99.90;;;;;;1899343;75;21152;-86
2022/06/10 23:27:33;;;;;;;3.70;1.50;;;19.50;99.90;;;;;;1975485;72;22186;-86
2022/06/10 23:30:44;;;;;;;2.40;1.75;;;19.60;99.90;;;;;;1925733;73;21219;-85
2022/06/10 23:33:55;;;;;;;2.72;1.17;;;19.40;99.90;;;;;;1923906;73;21067;-85
2022/06/10 23:36:48;;;;;;;3.37;1.20;;;19.20;99.90;;;;;;1931089;73;21094;-85
2022/06/10 23:39:58;;;;;;;5.20;1.30;;;19.10;99.90;;;;;;1861042;76;21142;-85
2022/06/10 23:42:52;;;;;;;5.03;1.40;;;19.00;99.90;;;;;;1916986;75;21126;-85
2022/06/10 23:52:08;;;;;;;3.37;1.07;;;18.70;99.90;;;;;;1924249;73;21130;-86
2022/06/10 23:57:41;;;;;;;6.12;1.50;;;18.60;99.90;;;;;;1937419;72;22599;-85
